sensor_id;sensor_type;location;lat;lon;timestamp;P1;durP1;ratioP1;P2;durP2;ratioP2
52104;SDS011;38103;42.776;23.112;2023-04-23T00:00:37;14.25;;;8.30;;
52104;SDS011;38103;42.776;23.112;2023-04-23T00:03:05;15.25;;;7.78;;
52104;SDS011;38103;42.776;23.112;2023-04-23T00:05:37;15.07;;;7.45;;
52104;SDS011;38103;42.776;23.112;2023-04-23T00:08:03;16.00;;;8.13;;
52104;SDS011;38103;42.776;23.112;2023-04-23T00:10:29;16.33;;;8.40;;
52104;SDS011;38103;42.776;23.112;2023-04-23T00:12:55;16.52;;;8.07;;
52104;SDS011;38103;42.776;23.112;2023-04-23T00:15:21;20.55;;;10.20;;
52104;SDS011;38103;42.776;23.112;2023-04-23T00:17:47;18.60;;;9.13;;
52104;SDS011;38103;42.776;23.112;2023-04-23T00:20:13;16.83;;;9.38;;
52104;SDS011;38103;42.776;23.112;2023-04-23T00:22:40;15.98;;;8.68;;
52104;SDS011;38103;42.776;23.112;2023-04-23T00:25:06;19.88;;;8.20;;
52104;SDS011;38103;42.776;23.112;2023-04-23T00:27:32;16.80;;;8.15;;
52104;SDS011;38103;42.776;23.112;2023-04-23T00:29:58;16.63;;;7.50;;
52104;SDS011;38103;42.776;23.112;2023-04-23T00:32:23;13.77;;;7.65;;
52104;SDS011;38103;42.776;23.112;2023-04-23T00:34:48;16.20;;;7.95;;
52104;SDS011;38103;42.776;23.112;2023-04-23T00:37:14;16.13;;;8.40;;
52104;SDS011;38103;42.776;23.112;2023-04-23T00:39:40;17.58;;;8.82;;
52104;SDS011;38103;42.776;23.112;2023-04-23T00:42:05;16.63;;;8.70;;
52104;SDS011;38103;42.776;23.112;2023-04-23T00:44:36;19.33;;;9.77;;
52104;SDS011;38103;42.776;23.112;2023-04-23T00:47:02;15.95;;;9.77;;
52104;SDS011;38103;42.776;23.112;2023-04-23T00:49:28;18.13;;;10.10;;
52104;SDS011;38103;42.776;23.112;2023-04-23T00:51:53;19.38;;;10.15;;
52104;SDS011;38103;42.776;23.112;2023-04-23T00:54:19;17.80;;;9.73;;
52104;SDS011;38103;42.776;23.112;2023-04-23T00:56:46;17.08;;;9.50;;
52104;SDS011;38103;42.776;23.112;2023-04-23T00:59:12;18.45;;;10.52;;
52104;SDS011;38103;42.776;23.112;2023-04-23T01:01:38;19.38;;;11.07;;
52104;SDS011;38103;42.776;23.112;2023-04-23T01:04:05;20.77;;;11.32;;
52104;SDS011;38103;42.776;23.112;2023-04-23T01:06:31;18.80;;;10.73;;
52104;SDS011;38103;42.776;23.112;2023-04-23T01:08:57;20.60;;;10.98;;
52104;SDS011;38103;42.776;23.112;2023-04-23T01:11:23;18.90;;;11.52;;
52104;SDS011;38103;42.776;23.112;2023-04-23T01:13:49;20.35;;;11.38;;
52104;SDS011;38103;42.776;23.112;2023-04-23T01:16:14;20.48;;;10.80;;
52104;SDS011;38103;42.776;23.112;2023-04-23T01:18:40;18.88;;;11.60;;
52104;SDS011;38103;42.776;23.112;2023-04-23T01:21:05;23.17;;;11.38;;
52104;SDS011;38103;42.776;23.112;2023-04-23T01:23:32;19.15;;;11.07;;
52104;SDS011;38103;42.776;23.112;2023-04-23T01:25:57;19.05;;;11.18;;
52104;SDS011;38103;42.776;23.112;2023-04-23T01:28:23;20.08;;;11.68;;
52104;SDS011;38103;42.776;23.112;2023-04-23T01:30:49;21.75;;;11.40;;
52104;SDS011;38103;42.776;23.112;2023-04-23T01:33:15;22.40;;;11.07;;
52104;SDS011;38103;42.776;23.112;2023-04-23T01:35:42;19.67;;;12.30;;
52104;SDS011;38103;42.776;23.112;2023-04-23T01:38:09;21.48;;;12.38;;
52104;SDS011;38103;42.776;23.112;2023-04-23T01:40:35;21.92;;;12.52;;
52104;SDS011;38103;42.776;23.112;2023-04-23T01:43:01;21.65;;;11.43;;
52104;SDS011;38103;42.776;23.112;2023-04-23T01:45:28;20.38;;;12.00;;
52104;SDS011;38103;42.776;23.112;2023-04-23T01:47:55;23.65;;;12.15;;
52104;SDS011;38103;42.776;23.112;2023-04-23T01:50:20;19.45;;;12.43;;
52104;SDS011;38103;42.776;23.112;2023-04-23T01:52:48;23.02;;;13.15;;
52104;SDS011;38103;42.776;23.112;2023-04-23T01:55:15;24.42;;;13.27;;
52104;SDS011;38103;42.776;23.112;2023-04-23T01:57:40;23.42;;;14.77;;
52104;SDS011;38103;42.776;23.112;2023-04-23T02:00:07;25.02;;;13.95;;
52104;SDS011;38103;42.776;23.112;2023-04-23T02:02:35;23.65;;;14.38;;
52104;SDS011;38103;42.776;23.112;2023-04-23T02:05:02;25.25;;;14.07;;
52104;SDS011;38103;42.776;23.112;2023-04-23T02:07:31;27.33;;;15.35;;
52104;SDS011;38103;42.776;23.112;2023-04-23T02:09:57;26.13;;;15.63;;
52104;SDS011;38103;42.776;23.112;2023-04-23T02:12:23;28.15;;;16.90;;
52104;SDS011;38103;42.776;23.112;2023-04-23T02:14:49;34.40;;;18.55;;
52104;SDS011;38103;42.776;23.112;2023-04-23T02:17:14;26.10;;;16.42;;
52104;SDS011;38103;42.776;23.112;2023-04-23T02:19:40;28.50;;;16.02;;
52104;SDS011;38103;42.776;23.112;2023-04-23T02:22:05;27.85;;;15.77;;
52104;SDS011;38103;42.776;23.112;2023-04-23T02:24:31;25.77;;;15.88;;
52104;SDS011;38103;42.776;23.112;2023-04-23T02:26:57;25.33;;;16.13;;
52104;SDS011;38103;42.776;23.112;2023-04-23T02:29:22;27.73;;;16.08;;
52104;SDS011;38103;42.776;23.112;2023-04-23T02:31:48;25.77;;;14.82;;
52104;SDS011;38103;42.776;23.112;2023-04-23T02:34:13;25.77;;;16.33;;
52104;SDS011;38103;42.776;23.112;2023-04-23T02:36:39;25.70;;;16.45;;
52104;SDS011;38103;42.776;23.112;2023-04-23T02:39:04;26.05;;;15.55;;
52104;SDS011;38103;42.776;23.112;2023-04-23T02:41:30;27.83;;;15.85;;
52104;SDS011;38103;42.776;23.112;2023-04-23T02:43:55;21.90;;;14.75;;
52104;SDS011;38103;42.776;23.112;2023-04-23T02:46:21;20.85;;;13.43;;
52104;SDS011;38103;42.776;23.112;2023-04-23T02:48:46;23.52;;;13.57;;
52104;SDS011;38103;42.776;23.112;2023-04-23T02:51:12;21.20;;;13.80;;
52104;SDS011;38103;42.776;23.112;2023-04-23T02:53:37;21.35;;;13.43;;
52104;SDS011;38103;42.776;23.112;2023-04-23T02:56:03;21.73;;;15.00;;
52104;SDS011;38103;42.776;23.112;2023-04-23T02:58:28;23.48;;;13.77;;
52104;SDS011;38103;42.776;23.112;2023-04-23T03:00:54;20.00;;;12.50;;
52104;SDS011;38103;42.776;23.112;2023-04-23T03:03:20;23.75;;;14.23;;
52104;SDS011;38103;42.776;23.112;2023-04-23T03:05:45;26.63;;;16.20;;
52104;SDS011;38103;42.776;23.112;2023-04-23T03:08:11;27.60;;;16.15;;
52104;SDS011;38103;42.776;23.112;2023-04-23T03:10:36;26.10;;;16.85;;
52104;SDS011;38103;42.776;23.112;2023-04-23T03:13:02;29.73;;;17.88;;
52104;SDS011;38103;42.776;23.112;2023-04-23T03:15:27;25.83;;;16.75;;
52104;SDS011;38103;42.776;23.112;2023-04-23T03:17:53;27.30;;;17.08;;
52104;SDS011;38103;42.776;23.112;2023-04-23T03:20:18;30.60;;;18.88;;
52104;SDS011;38103;42.776;23.112;2023-04-23T03:22:44;30.77;;;18.40;;
52104;SDS011;38103;42.776;23.112;2023-04-23T03:25:10;30.23;;;18.40;;
52104;SDS011;38103;42.776;23.112;2023-04-23T03:27:37;27.23;;;18.63;;
52104;SDS011;38103;42.776;23.112;2023-04-23T03:30:03;27.40;;;17.65;;
52104;SDS011;38103;42.776;23.112;2023-04-23T03:32:29;34.50;;;19.92;;
52104;SDS011;38103;42.776;23.112;2023-04-23T03:34:54;32.50;;;20.20;;
52104;SDS011;38103;42.776;23.112;2023-04-23T03:37:20;36.20;;;21.35;;
52104;SDS011;38103;42.776;23.112;2023-04-23T03:39:45;36.53;;;22.75;;
52104;SDS011;38103;42.776;23.112;2023-04-23T03:42:10;38.63;;;22.70;;
52104;SDS011;38103;42.776;23.112;2023-04-23T03:44:36;33.20;;;20.33;;
52104;SDS011;38103;42.776;23.112;2023-04-23T03:47:01;32.88;;;17.98;;
52104;SDS011;38103;42.776;23.112;2023-04-23T03:49:27;28.20;;;17.33;;
52104;SDS011;38103;42.776;23.112;2023-04-23T03:51:53;25.05;;;15.50;;
52104;SDS011;38103;42.776;23.112;2023-04-23T03:54:18;27.83;;;14.80;;
52104;SDS011;38103;42.776;23.112;2023-04-23T03:56:43;25.52;;;14.57;;
52104;SDS011;38103;42.776;23.112;2023-04-23T03:59:09;22.98;;;14.07;;
52104;SDS011;38103;42.776;23.112;2023-04-23T04:01:35;26.75;;;15.48;;
52104;SDS011;38103;42.776;23.112;2023-04-23T04:04:01;24.73;;;14.63;;
52104;SDS011;38103;42.776;23.112;2023-04-23T04:06:27;24.35;;;14.50;;
52104;SDS011;38103;42.776;23.112;2023-04-23T04:08:52;22.85;;;14.30;;
52104;SDS011;38103;42.776;23.112;2023-04-23T04:11:17;21.65;;;12.45;;
52104;SDS011;38103;42.776;23.112;2023-04-23T04:13:43;21.17;;;13.18;;
52104;SDS011;38103;42.776;23.112;2023-04-23T04:16:08;22.25;;;13.38;;
52104;SDS011;38103;42.776;23.112;2023-04-23T04:18:33;20.20;;;11.70;;
52104;SDS011;38103;42.776;23.112;2023-04-23T04:20:59;28.70;;;12.50;;
52104;SDS011;38103;42.776;23.112;2023-04-23T04:23:24;19.13;;;10.90;;
52104;SDS011;38103;42.776;23.112;2023-04-23T04:25:50;18.20;;;10.23;;
52104;SDS011;38103;42.776;23.112;2023-04-23T04:28:20;17.98;;;10.65;;
52104;SDS011;38103;42.776;23.112;2023-04-23T04:30:45;18.20;;;9.50;;
52104;SDS011;38103;42.776;23.112;2023-04-23T04:33:13;16.33;;;9.02;;
52104;SDS011;38103;42.776;23.112;2023-04-23T04:35:39;15.95;;;8.65;;
52104;SDS011;38103;42.776;23.112;2023-04-23T04:38:04;17.55;;;8.93;;
52104;SDS011;38103;42.776;23.112;2023-04-23T04:40:29;17.27;;;9.35;;
52104;SDS011;38103;42.776;23.112;2023-04-23T04:42:55;19.67;;;9.10;;
52104;SDS011;38103;42.776;23.112;2023-04-23T04:45:21;18.77;;;9.85;;
52104;SDS011;38103;42.776;23.112;2023-04-23T04:47:47;20.05;;;9.48;;
52104;SDS011;38103;42.776;23.112;2023-04-23T04:50:12;17.63;;;8.95;;
52104;SDS011;38103;42.776;23.112;2023-04-23T04:52:37;17.40;;;9.93;;
52104;SDS011;38103;42.776;23.112;2023-04-23T04:55:03;21.23;;;10.65;;
52104;SDS011;38103;42.776;23.112;2023-04-23T04:57:31;15.35;;;8.85;;
52104;SDS011;38103;42.776;23.112;2023-04-23T04:59:56;16.75;;;9.38;;
52104;SDS011;38103;42.776;23.112;2023-04-23T05:02:21;17.85;;;9.48;;
52104;SDS011;38103;42.776;23.112;2023-04-23T05:04:47;17.52;;;9.32;;
52104;SDS011;38103;42.776;23.112;2023-04-23T05:07:13;16.67;;;9.20;;
52104;SDS011;38103;42.776;23.112;2023-04-23T05:09:38;15.85;;;8.70;;
52104;SDS011;38103;42.776;23.112;2023-04-23T05:12:03;18.17;;;9.18;;
52104;SDS011;38103;42.776;23.112;2023-04-23T05:14:31;18.05;;;9.10;;
52104;SDS011;38103;42.776;23.112;2023-04-23T05:16:57;17.08;;;9.45;;
52104;SDS011;38103;42.776;23.112;2023-04-23T05:19:22;17.27;;;9.13;;
52104;SDS011;38103;42.776;23.112;2023-04-23T05:21:48;16.67;;;8.20;;
52104;SDS011;38103;42.776;23.112;2023-04-23T05:24:13;15.40;;;8.82;;
52104;SDS011;38103;42.776;23.112;2023-04-23T05:26:38;17.50;;;9.57;;
52104;SDS011;38103;42.776;23.112;2023-04-23T05:29:04;21.00;;;10.02;;
52104;SDS011;38103;42.776;23.112;2023-04-23T05:31:29;17.77;;;9.43;;
52104;SDS011;38103;42.776;23.112;2023-04-23T05:33:55;16.75;;;8.75;;
52104;SDS011;38103;42.776;23.112;2023-04-23T05:36:21;17.38;;;8.45;;
52104;SDS011;38103;42.776;23.112;2023-04-23T05:38:46;15.95;;;9.38;;
52104;SDS011;38103;42.776;23.112;2023-04-23T05:41:12;16.60;;;8.85;;
52104;SDS011;38103;42.776;23.112;2023-04-23T05:43:37;19.58;;;8.90;;
52104;SDS011;38103;42.776;23.112;2023-04-23T05:46:02;15.45;;;8.68;;
52104;SDS011;38103;42.776;23.112;2023-04-23T05:48:31;15.75;;;8.90;;
52104;SDS011;38103;42.776;23.112;2023-04-23T05:50:56;17.30;;;8.63;;
52104;SDS011;38103;42.776;23.112;2023-04-23T05:53:22;19.13;;;8.95;;
52104;SDS011;38103;42.776;23.112;2023-04-23T05:55:48;16.15;;;8.48;;
52104;SDS011;38103;42.776;23.112;2023-04-23T05:58:13;16.35;;;8.00;;
52104;SDS011;38103;42.776;23.112;2023-04-23T06:00:39;16.58;;;8.38;;
52104;SDS011;38103;42.776;23.112;2023-04-23T06:03:05;15.45;;;8.10;;
52104;SDS011;38103;42.776;23.112;2023-04-23T06:05:31;21.40;;;8.80;;
52104;SDS011;38103;42.776;23.112;2023-04-23T06:07:56;16.35;;;7.63;;
52104;SDS011;38103;42.776;23.112;2023-04-23T06:10:22;18.20;;;8.38;;
52104;SDS011;38103;42.776;23.112;2023-04-23T06:12:47;14.50;;;7.78;;
52104;SDS011;38103;42.776;23.112;2023-04-23T06:15:13;15.40;;;7.57;;
52104;SDS011;38103;42.776;23.112;2023-04-23T06:17:38;18.17;;;8.27;;
52104;SDS011;38103;42.776;23.112;2023-04-23T06:20:04;13.88;;;7.10;;
52104;SDS011;38103;42.776;23.112;2023-04-23T06:22:30;14.90;;;7.57;;
52104;SDS011;38103;42.776;23.112;2023-04-23T06:24:56;16.38;;;6.70;;
52104;SDS011;38103;42.776;23.112;2023-04-23T06:27:22;15.18;;;7.10;;
52104;SDS011;38103;42.776;23.112;2023-04-23T06:29:47;13.80;;;6.53;;
52104;SDS011;38103;42.776;23.112;2023-04-23T06:32:12;16.55;;;6.82;;
52104;SDS011;38103;42.776;23.112;2023-04-23T06:34:38;14.13;;;7.05;;
52104;SDS011;38103;42.776;23.112;2023-04-23T06:37:03;14.05;;;6.78;;
52104;SDS011;38103;42.776;23.112;2023-04-23T06:39:28;14.52;;;6.88;;
52104;SDS011;38103;42.776;23.112;2023-04-23T06:41:54;18.65;;;7.53;;
52104;SDS011;38103;42.776;23.112;2023-04-23T06:44:20;13.52;;;6.65;;
52104;SDS011;38103;42.776;23.112;2023-04-23T06:46:46;14.57;;;7.15;;
52104;SDS011;38103;42.776;23.112;2023-04-23T06:49:11;16.38;;;8.18;;
52104;SDS011;38103;42.776;23.112;2023-04-23T06:51:36;16.20;;;7.97;;
52104;SDS011;38103;42.776;23.112;2023-04-23T06:54:02;13.30;;;7.40;;
52104;SDS011;38103;42.776;23.112;2023-04-23T06:56:27;15.25;;;7.97;;
52104;SDS011;38103;42.776;23.112;2023-04-23T06:58:53;15.30;;;7.85;;
52104;SDS011;38103;42.776;23.112;2023-04-23T07:01:18;18.73;;;8.00;;
52104;SDS011;38103;42.776;23.112;2023-04-23T07:03:43;19.95;;;8.35;;
52104;SDS011;38103;42.776;23.112;2023-04-23T07:06:13;16.35;;;8.77;;
52104;SDS011;38103;42.776;23.112;2023-04-23T07:08:39;18.60;;;9.82;;
52104;SDS011;38103;42.776;23.112;2023-04-23T07:11:05;18.63;;;9.70;;
52104;SDS011;38103;42.776;23.112;2023-04-23T07:13:31;19.80;;;9.70;;
52104;SDS011;38103;42.776;23.112;2023-04-23T07:15:56;15.70;;;8.90;;
52104;SDS011;38103;42.776;23.112;2023-04-23T07:18:21;17.15;;;10.10;;
52104;SDS011;38103;42.776;23.112;2023-04-23T07:20:47;18.30;;;9.95;;
52104;SDS011;38103;42.776;23.112;2023-04-23T07:23:12;18.27;;;9.45;;
52104;SDS011;38103;42.776;23.112;2023-04-23T07:25:38;17.08;;;8.63;;
52104;SDS011;38103;42.776;23.112;2023-04-23T07:28:03;17.98;;;9.13;;
52104;SDS011;38103;42.776;23.112;2023-04-23T07:30:29;16.15;;;9.20;;
52104;SDS011;38103;42.776;23.112;2023-04-23T07:32:55;16.10;;;9.30;;
52104;SDS011;38103;42.776;23.112;2023-04-23T07:35:20;18.23;;;8.93;;
52104;SDS011;38103;42.776;23.112;2023-04-23T07:37:46;17.55;;;8.77;;
52104;SDS011;38103;42.776;23.112;2023-04-23T07:40:11;20.02;;;9.10;;
52104;SDS011;38103;42.776;23.112;2023-04-23T07:42:37;18.17;;;9.93;;
52104;SDS011;38103;42.776;23.112;2023-04-23T07:45:03;17.48;;;8.60;;
52104;SDS011;38103;42.776;23.112;2023-04-23T07:47:29;17.85;;;8.82;;
52104;SDS011;38103;42.776;23.112;2023-04-23T07:49:55;19.75;;;9.10;;
52104;SDS011;38103;42.776;23.112;2023-04-23T07:52:20;15.18;;;8.23;;
52104;SDS011;38103;42.776;23.112;2023-04-23T07:54:46;19.88;;;9.57;;
52104;SDS011;38103;42.776;23.112;2023-04-23T07:57:11;17.45;;;9.05;;
52104;SDS011;38103;42.776;23.112;2023-04-23T07:59:36;16.98;;;8.80;;
52104;SDS011;38103;42.776;23.112;2023-04-23T08:02:05;16.35;;;8.90;;
52104;SDS011;38103;42.776;23.112;2023-04-23T08:04:30;16.98;;;9.05;;
52104;SDS011;38103;42.776;23.112;2023-04-23T08:06:56;16.20;;;8.90;;
52104;SDS011;38103;42.776;23.112;2023-04-23T08:09:22;17.40;;;9.75;;
52104;SDS011;38103;42.776;23.112;2023-04-23T08:11:48;18.17;;;9.52;;
52104;SDS011;38103;42.776;23.112;2023-04-23T08:14:13;17.85;;;9.43;;
52104;SDS011;38103;42.776;23.112;2023-04-23T08:16:38;20.40;;;10.27;;
52104;SDS011;38103;42.776;23.112;2023-04-23T08:19:04;18.20;;;11.02;;
52104;SDS011;38103;42.776;23.112;2023-04-23T08:21:32;19.15;;;9.90;;
52104;SDS011;38103;42.776;23.112;2023-04-23T08:23:58;19.85;;;10.50;;
52104;SDS011;38103;42.776;23.112;2023-04-23T08:26:24;20.55;;;9.57;;
52104;SDS011;38103;42.776;23.112;2023-04-23T08:28:49;17.70;;;10.75;;
52104;SDS011;38103;42.776;23.112;2023-04-23T08:31:14;17.08;;;10.27;;
52104;SDS011;38103;42.776;23.112;2023-04-23T08:33:41;20.40;;;10.50;;
52104;SDS011;38103;42.776;23.112;2023-04-23T08:36:06;17.50;;;9.70;;
52104;SDS011;38103;42.776;23.112;2023-04-23T08:38:32;23.17;;;10.90;;
52104;SDS011;38103;42.776;23.112;2023-04-23T08:40:58;20.40;;;10.05;;
52104;SDS011;38103;42.776;23.112;2023-04-23T08:43:27;18.23;;;9.57;;
52104;SDS011;38103;42.776;23.112;2023-04-23T08:46:13;17.60;;;10.13;;
52104;SDS011;38103;42.776;23.112;2023-04-23T08:48:40;19.85;;;10.35;;
52104;SDS011;38103;42.776;23.112;2023-04-23T08:51:07;17.40;;;9.65;;
52104;SDS011;38103;42.776;23.112;2023-04-23T08:53:33;18.45;;;8.75;;
52104;SDS011;38103;42.776;23.112;2023-04-23T08:56:00;16.58;;;8.63;;
52104;SDS011;38103;42.776;23.112;2023-04-23T08:58:27;18.15;;;8.65;;
52104;SDS011;38103;42.776;23.112;2023-04-23T09:00:54;15.75;;;8.55;;
52104;SDS011;38103;42.776;23.112;2023-04-23T09:03:22;15.13;;;8.30;;
52104;SDS011;38103;42.776;23.112;2023-04-23T09:05:49;15.60;;;8.82;;
52104;SDS011;38103;42.776;23.112;2023-04-23T09:08:15;14.07;;;7.78;;
52104;SDS011;38103;42.776;23.112;2023-04-23T09:10:41;19.85;;;8.20;;
52104;SDS011;38103;42.776;23.112;2023-04-23T09:13:08;19.95;;;8.82;;
52104;SDS011;38103;42.776;23.112;2023-04-23T09:15:35;16.48;;;8.30;;
52104;SDS011;38103;42.776;23.112;2023-04-23T09:18:03;14.48;;;8.50;;
52104;SDS011;38103;42.776;23.112;2023-04-23T09:20:30;19.30;;;8.98;;
52104;SDS011;38103;42.776;23.112;2023-04-23T09:22:56;16.65;;;8.20;;
52104;SDS011;38103;42.776;23.112;2023-04-23T09:25:22;14.05;;;7.93;;
52104;SDS011;38103;42.776;23.112;2023-04-23T09:27:49;16.55;;;8.35;;
52104;SDS011;38103;42.776;23.112;2023-04-23T09:30:16;18.58;;;7.90;;
52104;SDS011;38103;42.776;23.112;2023-04-23T09:32:43;18.80;;;8.32;;
52104;SDS011;38103;42.776;23.112;2023-04-23T09:35:11;17.95;;;8.07;;
52104;SDS011;38103;42.776;23.112;2023-04-23T09:37:40;16.30;;;8.60;;
52104;SDS011;38103;42.776;23.112;2023-04-23T09:40:06;15.43;;;8.40;;
52104;SDS011;38103;42.776;23.112;2023-04-23T09:42:35;19.25;;;7.72;;
52104;SDS011;38103;42.776;23.112;2023-04-23T09:45:04;13.95;;;7.20;;
52104;SDS011;38103;42.776;23.112;2023-04-23T09:47:39;14.00;;;7.10;;
52104;SDS011;38103;42.776;23.112;2023-04-23T09:50:08;11.77;;;6.28;;
52104;SDS011;38103;42.776;23.112;2023-04-23T09:52:39;17.55;;;6.93;;
52104;SDS011;38103;42.776;23.112;2023-04-23T09:55:05;15.38;;;7.80;;
52104;SDS011;38103;42.776;23.112;2023-04-23T09:57:35;14.13;;;7.30;;
52104;SDS011;38103;42.776;23.112;2023-04-23T10:00:14;16.15;;;6.97;;
52104;SDS011;38103;42.776;23.112;2023-04-23T10:02:48;16.52;;;7.57;;
52104;SDS011;38103;42.776;23.112;2023-04-23T10:05:15;14.43;;;6.78;;
52104;SDS011;38103;42.776;23.112;2023-04-23T10:07:42;14.57;;;6.80;;
52104;SDS011;38103;42.776;23.112;2023-04-23T10:10:09;15.77;;;7.20;;
52104;SDS011;38103;42.776;23.112;2023-04-23T10:12:35;16.90;;;7.13;;
52104;SDS011;38103;42.776;23.112;2023-04-23T10:15:01;15.68;;;6.82;;
52104;SDS011;38103;42.776;23.112;2023-04-23T10:17:31;17.52;;;7.00;;
52104;SDS011;38103;42.776;23.112;2023-04-23T10:19:58;15.73;;;6.53;;
52104;SDS011;38103;42.776;23.112;2023-04-23T10:22:26;15.32;;;7.78;;
52104;SDS011;38103;42.776;23.112;2023-04-23T10:24:54;14.88;;;7.20;;
52104;SDS011;38103;42.776;23.112;2023-04-23T10:27:28;14.32;;;6.93;;
52104;SDS011;38103;42.776;23.112;2023-04-23T10:29:58;12.98;;;6.97;;
52104;SDS011;38103;42.776;23.112;2023-04-23T10:32:24;13.10;;;6.53;;
52104;SDS011;38103;42.776;23.112;2023-04-23T10:34:51;14.57;;;6.60;;
52104;SDS011;38103;42.776;23.112;2023-04-23T10:37:17;13.50;;;6.85;;
52104;SDS011;38103;42.776;23.112;2023-04-23T10:39:44;12.00;;;6.43;;
52104;SDS011;38103;42.776;23.112;2023-04-23T10:42:14;15.18;;;6.03;;
52104;SDS011;38103;42.776;23.112;2023-04-23T10:44:41;13.43;;;6.22;;
52104;SDS011;38103;42.776;23.112;2023-04-23T10:47:11;13.20;;;5.85;;
52104;SDS011;38103;42.776;23.112;2023-04-23T10:49:38;14.35;;;5.95;;
52104;SDS011;38103;42.776;23.112;2023-04-23T10:52:14;14.15;;;6.50;;
52104;SDS011;38103;42.776;23.112;2023-04-23T10:54:42;12.50;;;5.90;;
52104;SDS011;38103;42.776;23.112;2023-04-23T10:57:08;15.50;;;6.43;;
52104;SDS011;38103;42.776;23.112;2023-04-23T10:59:38;13.90;;;6.20;;
52104;SDS011;38103;42.776;23.112;2023-04-23T11:04:46;12.93;;;5.65;;
52104;SDS011;38103;42.776;23.112;2023-04-23T11:07:18;14.35;;;5.90;;
52104;SDS011;38103;42.776;23.112;2023-04-23T11:12:34;13.05;;;6.20;;
52104;SDS011;38103;42.776;23.112;2023-04-23T11:14:59;15.75;;;6.10;;
52104;SDS011;38103;42.776;23.112;2023-04-23T11:22:34;13.32;;;5.50;;
52104;SDS011;38103;42.776;23.112;2023-04-23T11:25:01;12.57;;;5.38;;
52104;SDS011;38103;42.776;23.112;2023-04-23T11:27:28;14.38;;;5.50;;
52104;SDS011;38103;42.776;23.112;2023-04-23T11:29:55;11.77;;;5.28;;
52104;SDS011;38103;42.776;23.112;2023-04-23T11:32:21;12.40;;;4.88;;
52104;SDS011;38103;42.776;23.112;2023-04-23T11:34:47;11.55;;;5.10;;
52104;SDS011;38103;42.776;23.112;2023-04-23T11:37:14;12.18;;;5.28;;
52104;SDS011;38103;42.776;23.112;2023-04-23T11:39:42;11.52;;;4.72;;
52104;SDS011;38103;42.776;23.112;2023-04-23T11:42:09;12.48;;;5.30;;
52104;SDS011;38103;42.776;23.112;2023-04-23T11:44:38;14.65;;;5.72;;
52104;SDS011;38103;42.776;23.112;2023-04-23T11:47:06;12.90;;;5.13;;
52104;SDS011;38103;42.776;23.112;2023-04-23T11:49:35;12.15;;;4.70;;
52104;SDS011;38103;42.776;23.112;2023-04-23T11:52:02;12.30;;;5.03;;
52104;SDS011;38103;42.776;23.112;2023-04-23T11:54:28;11.55;;;4.80;;
52104;SDS011;38103;42.776;23.112;2023-04-23T11:56:53;12.05;;;5.18;;
52104;SDS011;38103;42.776;23.112;2023-04-23T11:59:19;13.77;;;5.10;;
52104;SDS011;38103;42.776;23.112;2023-04-23T12:01:48;11.75;;;5.05;;
52104;SDS011;38103;42.776;23.112;2023-04-23T12:04:17;11.48;;;4.82;;
52104;SDS011;38103;42.776;23.112;2023-04-23T12:06:45;15.90;;;4.97;;
52104;SDS011;38103;42.776;23.112;2023-04-23T12:09:12;11.18;;;5.15;;
52104;SDS011;38103;42.776;23.112;2023-04-23T12:11:42;17.80;;;5.10;;
52104;SDS011;38103;42.776;23.112;2023-04-23T12:14:09;11.98;;;4.80;;
52104;SDS011;38103;42.776;23.112;2023-04-23T12:16:39;13.63;;;4.55;;
52104;SDS011;38103;42.776;23.112;2023-04-23T12:19:06;13.85;;;4.85;;
52104;SDS011;38103;42.776;23.112;2023-04-23T12:21:33;11.85;;;4.80;;
52104;SDS011;38103;42.776;23.112;2023-04-23T12:23:58;14.63;;;4.70;;
52104;SDS011;38103;42.776;23.112;2023-04-23T12:26:27;13.52;;;6.28;;
52104;SDS011;38103;42.776;23.112;2023-04-23T12:28:54;11.00;;;4.93;;
52104;SDS011;38103;42.776;23.112;2023-04-23T12:31:26;10.23;;;4.80;;
52104;SDS011;38103;42.776;23.112;2023-04-23T12:33:56;24.25;;;9.90;;
52104;SDS011;38103;42.776;23.112;2023-04-23T12:36:32;15.75;;;5.93;;
52104;SDS011;38103;42.776;23.112;2023-04-23T12:39:18;11.30;;;4.55;;
52104;SDS011;38103;42.776;23.112;2023-04-23T12:41:45;12.95;;;4.93;;
52104;SDS011;38103;42.776;23.112;2023-04-23T12:44:10;10.18;;;4.55;;
52104;SDS011;38103;42.776;23.112;2023-04-23T12:46:36;12.55;;;4.97;;
52104;SDS011;38103;42.776;23.112;2023-04-23T12:49:01;14.48;;;5.32;;
52104;SDS011;38103;42.776;23.112;2023-04-23T12:51:26;9.00;;;3.97;;
52104;SDS011;38103;42.776;23.112;2023-04-23T12:53:52;11.40;;;4.82;;
52104;SDS011;38103;42.776;23.112;2023-04-23T12:56:17;11.43;;;4.13;;
52104;SDS011;38103;42.776;23.112;2023-04-23T12:58:43;12.70;;;4.47;;
52104;SDS011;38103;42.776;23.112;2023-04-23T13:01:09;15.07;;;8.32;;
52104;SDS011;38103;42.776;23.112;2023-04-23T13:03:36;14.18;;;6.28;;
52104;SDS011;38103;42.776;23.112;2023-04-23T13:06:02;13.77;;;6.10;;
52104;SDS011;38103;42.776;23.112;2023-04-23T13:08:27;18.38;;;7.22;;
52104;SDS011;38103;42.776;23.112;2023-04-23T13:10:52;17.00;;;7.22;;
52104;SDS011;38103;42.776;23.112;2023-04-23T13:13:18;13.18;;;5.10;;
52104;SDS011;38103;42.776;23.112;2023-04-23T13:15:43;12.73;;;4.22;;
52104;SDS011;38103;42.776;23.112;2023-04-23T13:18:09;9.70;;;4.13;;
52104;SDS011;38103;42.776;23.112;2023-04-23T13:20:34;10.82;;;3.95;;
52104;SDS011;38103;42.776;23.112;2023-04-23T13:22:59;9.68;;;4.00;;
52104;SDS011;38103;42.776;23.112;2023-04-23T13:25:27;15.98;;;4.10;;
52104;SDS011;38103;42.776;23.112;2023-04-23T13:27:52;9.90;;;3.63;;
52104;SDS011;38103;42.776;23.112;2023-04-23T13:30:19;11.48;;;3.97;;
52104;SDS011;38103;42.776;23.112;2023-04-23T13:32:44;9.60;;;4.03;;
52104;SDS011;38103;42.776;23.112;2023-04-23T13:35:09;10.68;;;4.20;;
52104;SDS011;38103;42.776;23.112;2023-04-23T13:37:35;10.18;;;4.07;;
52104;SDS011;38103;42.776;23.112;2023-04-23T13:40:00;12.30;;;4.32;;
52104;SDS011;38103;42.776;23.112;2023-04-23T13:42:26;12.65;;;4.38;;
52104;SDS011;38103;42.776;23.112;2023-04-23T13:44:51;10.52;;;4.20;;
52104;SDS011;38103;42.776;23.112;2023-04-23T13:47:17;10.75;;;4.20;;
52104;SDS011;38103;42.776;23.112;2023-04-23T13:49:42;10.82;;;4.60;;
52104;SDS011;38103;42.776;23.112;2023-04-23T13:52:07;11.15;;;4.63;;
52104;SDS011;38103;42.776;23.112;2023-04-23T13:54:33;11.90;;;4.70;;
52104;SDS011;38103;42.776;23.112;2023-04-23T13:56:59;10.98;;;4.20;;
52104;SDS011;38103;42.776;23.112;2023-04-23T13:59:25;11.23;;;4.63;;
52104;SDS011;38103;42.776;23.112;2023-04-23T14:01:50;11.63;;;4.25;;
52104;SDS011;38103;42.776;23.112;2023-04-23T14:04:16;10.65;;;4.57;;
52104;SDS011;38103;42.776;23.112;2023-04-23T14:06:42;11.23;;;4.32;;
52104;SDS011;38103;42.776;23.112;2023-04-23T14:09:07;15.55;;;4.82;;
52104;SDS011;38103;42.776;23.112;2023-04-23T14:11:33;10.77;;;4.65;;
52104;SDS011;38103;42.776;23.112;2023-04-23T14:13:58;13.60;;;4.32;;
52104;SDS011;38103;42.776;23.112;2023-04-23T14:16:25;10.68;;;4.70;;
52104;SDS011;38103;42.776;23.112;2023-04-23T14:18:50;10.98;;;4.95;;
52104;SDS011;38103;42.776;23.112;2023-04-23T14:21:16;10.57;;;4.82;;
52104;SDS011;38103;42.776;23.112;2023-04-23T14:23:54;11.93;;;4.38;;